Delta, Missouri
Current Conditions -  °F | °C
As of 1:53 AM on Monday 26 Jan 2015 (Local Time) from KCGI Reporting Station
Overcast Overcast  
Wind Chill: 24°   Ceiling: 1700
Heat Index: 33°   Visibility: 10mi
Dew Point: 29°   Wind: 13mph
Humidity: 85%   Direction: 350°N
Pressure: 30"   Gusts: NA
Location:  37.2°N, 89.74°W
Report Text: KCGI 260753Z AUTO 35011KT 10SM OVC017 01/M02 A3000 RMK AO2 SLP158 T00061017 TSNO
Loading
Personal Weather Stations






























Interactive Weather Map New forecast layout! Learn more

10-Day Weather Forecast

Advertisements
Track Severe Weather on mobile